sensor_id;sensor_type;location;lat;lon;timestamp;pressure;altitude;pressure_sealevel;temperature;humidity
57885;BME280;43703;51.060;-0.086;2022-12-29T00:00:59;98250.35;;;5.12;85.69
57885;BME280;43703;51.060;-0.086;2022-12-29T00:03:21;98252.11;;;5.10;83.71
57885;BME280;43703;51.060;-0.086;2022-12-29T00:05:54;98250.77;;;4.96;84.81
57885;BME280;43703;51.060;-0.086;2022-12-29T00:08:12;98238.25;;;5.03;85.63
57885;BME280;43703;51.060;-0.086;2022-12-29T00:10:37;98259.25;;;4.68;86.39
57885;BME280;43703;51.060;-0.086;2022-12-29T00:13:02;98255.57;;;4.75;87.27
57885;BME280;43703;51.060;-0.086;2022-12-29T00:15:27;98259.44;;;4.99;87.24
57885;BME280;43703;51.060;-0.086;2022-12-29T00:17:53;98256.80;;;4.88;85.72
57885;BME280;43703;51.060;-0.086;2022-12-29T00:20:18;98254.94;;;5.08;85.65
57885;BME280;43703;51.060;-0.086;2022-12-29T00:22:43;98235.43;;;4.89;85.58
57885;BME280;43703;51.060;-0.086;2022-12-29T00:25:10;98234.49;;;4.89;87.67
57885;BME280;43703;51.060;-0.086;2022-12-29T00:27:35;98234.52;;;5.29;86.52
57885;BME280;43703;51.060;-0.086;2022-12-29T00:30:00;98222.26;;;4.68;87.78
57885;BME280;43703;51.060;-0.086;2022-12-29T00:32:26;98224.74;;;4.50;86.86
57885;BME280;43703;51.060;-0.086;2022-12-29T00:34:52;98224.31;;;4.88;86.70
57885;BME280;43703;51.060;-0.086;2022-12-29T00:37:17;98223.65;;;4.96;86.81
57885;BME280;43703;51.060;-0.086;2022-12-29T00:39:42;98229.69;;;4.70;86.92
57885;BME280;43703;51.060;-0.086;2022-12-29T00:42:08;98234.24;;;4.59;87.53
57885;BME280;43703;51.060;-0.086;2022-12-29T00:44:33;98229.83;;;4.86;84.72
57885;BME280;43703;51.060;-0.086;2022-12-29T00:46:58;98230.89;;;4.99;83.88
57885;BME280;43703;51.060;-0.086;2022-12-29T00:49:23;98233.10;;;4.81;84.61
57885;BME280;43703;51.060;-0.086;2022-12-29T00:51:49;98243.01;;;4.82;83.69
57885;BME280;43703;51.060;-0.086;2022-12-29T00:54:16;98244.30;;;4.78;83.17
57885;BME280;43703;51.060;-0.086;2022-12-29T00:56:39;98247.68;;;4.66;82.66
57885;BME280;43703;51.060;-0.086;2022-12-29T00:59:06;98237.10;;;4.42;83.40
57885;BME280;43703;51.060;-0.086;2022-12-29T01:01:29;98241.08;;;4.60;80.86
57885;BME280;43703;51.060;-0.086;2022-12-29T01:03:55;98234.34;;;4.10;83.04
57885;BME280;43703;51.060;-0.086;2022-12-29T01:06:20;98234.24;;;4.52;82.92
57885;BME280;43703;51.060;-0.086;2022-12-29T01:08:45;98233.75;;;4.83;81.40
57885;BME280;43703;51.060;-0.086;2022-12-29T01:11:12;98240.78;;;4.41;81.79
57885;BME280;43703;51.060;-0.086;2022-12-29T01:13:36;98241.12;;;4.74;80.73
57885;BME280;43703;51.060;-0.086;2022-12-29T01:16:01;98243.88;;;4.96;79.18
57885;BME280;43703;51.060;-0.086;2022-12-29T01:18:26;98240.12;;;4.60;82.05
57885;BME280;43703;51.060;-0.086;2022-12-29T01:20:58;98240.34;;;5.06;81.43
57885;BME280;43703;51.060;-0.086;2022-12-29T01:23:17;98242.78;;;4.60;82.95
57885;BME280;43703;51.060;-0.086;2022-12-29T01:25:42;98235.70;;;4.49;83.75
57885;BME280;43703;51.060;-0.086;2022-12-29T01:28:07;98238.88;;;4.60;83.56
57885;BME280;43703;51.060;-0.086;2022-12-29T01:30:33;98229.36;;;5.07;82.32
57885;BME280;43703;51.060;-0.086;2022-12-29T01:32:58;98232.09;;;4.75;82.38
57885;BME280;43703;51.060;-0.086;2022-12-29T01:35:23;98227.06;;;4.74;83.47
57885;BME280;43703;51.060;-0.086;2022-12-29T01:37:49;98233.64;;;4.54;84.53
57885;BME280;43703;51.060;-0.086;2022-12-29T01:40:14;98231.93;;;4.61;82.84
57885;BME280;43703;51.060;-0.086;2022-12-29T01:42:39;98238.28;;;4.78;80.43
57885;BME280;43703;51.060;-0.086;2022-12-29T01:45:09;98237.32;;;4.60;81.11
57885;BME280;43703;51.060;-0.086;2022-12-29T01:47:34;98238.15;;;4.43;82.78
57885;BME280;43703;51.060;-0.086;2022-12-29T01:49:57;98239.57;;;4.30;82.24
57885;BME280;43703;51.060;-0.086;2022-12-29T01:52:22;98239.53;;;4.42;82.32
57885;BME280;43703;51.060;-0.086;2022-12-29T01:54:48;98249.11;;;4.49;81.45
57885;BME280;43703;51.060;-0.086;2022-12-29T01:57:14;98245.93;;;4.27;81.16
57885;BME280;43703;51.060;-0.086;2022-12-29T01:59:38;98244.54;;;4.81;80.56
57885;BME280;43703;51.060;-0.086;2022-12-29T02:02:02;98252.20;;;4.74;81.36
57885;BME280;43703;51.060;-0.086;2022-12-29T02:04:29;98247.77;;;5.05;79.60
57885;BME280;43703;51.060;-0.086;2022-12-29T02:06:54;98246.65;;;4.35;82.35
57885;BME280;43703;51.060;-0.086;2022-12-29T02:09:18;98245.24;;;4.30;82.26
57885;BME280;43703;51.060;-0.086;2022-12-29T02:11:43;98242.30;;;4.18;82.74
57885;BME280;43703;51.060;-0.086;2022-12-29T02:14:10;98245.16;;;4.84;81.01
57885;BME280;43703;51.060;-0.086;2022-12-29T02:16:44;98234.83;;;4.57;82.14
57885;BME280;43703;51.060;-0.086;2022-12-29T02:24:07;98238.58;;;4.47;83.85
57885;BME280;43703;51.060;-0.086;2022-12-29T02:26:26;98236.90;;;4.79;81.43
57885;BME280;43703;51.060;-0.086;2022-12-29T02:28:51;98236.64;;;5.05;79.14
57885;BME280;43703;51.060;-0.086;2022-12-29T02:31:12;98236.95;;;4.64;81.05
57885;BME280;43703;51.060;-0.086;2022-12-29T02:33:41;98238.62;;;4.51;82.19
57885;BME280;43703;51.060;-0.086;2022-12-29T02:36:04;98241.21;;;4.81;82.13
57885;BME280;43703;51.060;-0.086;2022-12-29T02:38:31;98229.79;;;4.83;80.99
57885;BME280;43703;51.060;-0.086;2022-12-29T02:40:51;98231.03;;;4.38;83.20
57885;BME280;43703;51.060;-0.086;2022-12-29T02:43:19;98225.51;;;4.54;82.81
57885;BME280;43703;51.060;-0.086;2022-12-29T02:45:43;98204.74;;;4.41;84.04
57885;BME280;43703;51.060;-0.086;2022-12-29T02:48:08;98210.96;;;4.95;81.06
57885;BME280;43703;51.060;-0.086;2022-12-29T02:50:33;98215.60;;;4.70;81.98
57885;BME280;43703;51.060;-0.086;2022-12-29T02:52:59;98216.21;;;4.45;82.77
57885;BME280;43703;51.060;-0.086;2022-12-29T02:55:19;98220.73;;;4.51;83.21
57885;BME280;43703;51.060;-0.086;2022-12-29T02:57:45;98210.02;;;4.83;80.49
57885;BME280;43703;51.060;-0.086;2022-12-29T03:00:14;98211.45;;;5.24;79.50
57885;BME280;43703;51.060;-0.086;2022-12-29T03:05:15;98197.78;;;4.73;82.08
57885;BME280;43703;51.060;-0.086;2022-12-29T03:07:34;98207.61;;;4.42;81.06
57885;BME280;43703;51.060;-0.086;2022-12-29T03:09:58;98204.81;;;4.48;81.21
57885;BME280;43703;51.060;-0.086;2022-12-29T03:12:24;98207.55;;;4.81;79.07
57885;BME280;43703;51.060;-0.086;2022-12-29T03:14:52;98207.96;;;4.92;79.56
57885;BME280;43703;51.060;-0.086;2022-12-29T03:17:11;98192.08;;;4.94;79.68
57885;BME280;43703;51.060;-0.086;2022-12-29T03:19:36;98190.38;;;4.10;82.97
57885;BME280;43703;51.060;-0.086;2022-12-29T03:22:00;98191.40;;;4.55;82.19
57885;BME280;43703;51.060;-0.086;2022-12-29T03:24:25;98200.66;;;4.15;82.67
57885;BME280;43703;51.060;-0.086;2022-12-29T03:26:49;98201.39;;;4.40;81.58
57885;BME280;43703;51.060;-0.086;2022-12-29T03:29:14;98208.36;;;4.91;80.81
57885;BME280;43703;51.060;-0.086;2022-12-29T03:31:38;98212.77;;;4.56;81.41
57885;BME280;43703;51.060;-0.086;2022-12-29T03:34:03;98216.27;;;5.04;79.42
57885;BME280;43703;51.060;-0.086;2022-12-29T03:36:32;98228.65;;;4.62;82.32
57885;BME280;43703;51.060;-0.086;2022-12-29T03:38:59;98225.84;;;4.97;81.49
57885;BME280;43703;51.060;-0.086;2022-12-29T03:41:23;98223.68;;;4.97;80.39
57885;BME280;43703;51.060;-0.086;2022-12-29T03:43:45;98231.10;;;5.02;78.15
57885;BME280;43703;51.060;-0.086;2022-12-29T03:46:11;98237.89;;;5.33;79.16
57885;BME280;43703;51.060;-0.086;2022-12-29T03:48:36;98235.16;;;4.74;80.99
57885;BME280;43703;51.060;-0.086;2022-12-29T03:51:01;98226.33;;;4.68;80.85
57885;BME280;43703;51.060;-0.086;2022-12-29T03:53:27;98223.80;;;4.42;81.73
57885;BME280;43703;51.060;-0.086;2022-12-29T03:55:52;98213.59;;;4.84;79.51
57885;BME280;43703;51.060;-0.086;2022-12-29T03:58:17;98225.94;;;5.05;78.90
57885;BME280;43703;51.060;-0.086;2022-12-29T04:00:43;98223.93;;;5.12;78.34
57885;BME280;43703;51.060;-0.086;2022-12-29T04:03:08;98230.06;;;5.03;78.85
57885;BME280;43703;51.060;-0.086;2022-12-29T04:05:33;98221.48;;;5.46;78.78
57885;BME280;43703;51.060;-0.086;2022-12-29T04:07:58;98227.98;;;5.16;79.13
57885;BME280;43703;51.060;-0.086;2022-12-29T04:10:24;98231.54;;;5.29;79.74
57885;BME280;43703;51.060;-0.086;2022-12-29T04:12:50;98241.46;;;5.08;80.85
57885;BME280;43703;51.060;-0.086;2022-12-29T04:15:15;98228.18;;;5.01;81.07
57885;BME280;43703;51.060;-0.086;2022-12-29T04:17:41;98218.62;;;5.35;80.33
57885;BME280;43703;51.060;-0.086;2022-12-29T04:20:06;98220.28;;;5.30;79.49
57885;BME280;43703;51.060;-0.086;2022-12-29T04:22:31;98226.81;;;5.01;80.10
57885;BME280;43703;51.060;-0.086;2022-12-29T04:24:56;98235.32;;;4.88;81.02
57885;BME280;43703;51.060;-0.086;2022-12-29T04:27:22;98227.48;;;5.02;81.02
57885;BME280;43703;51.060;-0.086;2022-12-29T04:29:47;98237.74;;;4.69;82.84
57885;BME280;43703;51.060;-0.086;2022-12-29T04:32:13;98230.31;;;5.03;82.54
57885;BME280;43703;51.060;-0.086;2022-12-29T04:34:38;98246.07;;;5.16;83.37
57885;BME280;43703;51.060;-0.086;2022-12-29T04:37:03;98245.66;;;5.27;83.27
57885;BME280;43703;51.060;-0.086;2022-12-29T04:39:28;98232.67;;;4.83;85.14
57885;BME280;43703;51.060;-0.086;2022-12-29T04:41:53;98240.23;;;4.98;84.95
57885;BME280;43703;51.060;-0.086;2022-12-29T04:44:19;98239.58;;;4.78;84.44
57885;BME280;43703;51.060;-0.086;2022-12-29T04:46:45;98237.42;;;4.47;85.97
57885;BME280;43703;51.060;-0.086;2022-12-29T04:49:11;98241.55;;;5.24;84.01
57885;BME280;43703;51.060;-0.086;2022-12-29T04:51:36;98236.41;;;4.87;85.56
57885;BME280;43703;51.060;-0.086;2022-12-29T04:54:01;98229.85;;;4.87;86.68
57885;BME280;43703;51.060;-0.086;2022-12-29T04:56:26;98241.51;;;4.35;87.02
57885;BME280;43703;51.060;-0.086;2022-12-29T04:58:52;98244.49;;;4.60;87.10
57885;BME280;43703;51.060;-0.086;2022-12-29T05:01:17;98239.44;;;5.02;86.03
57885;BME280;43703;51.060;-0.086;2022-12-29T05:03:43;98244.44;;;4.65;87.44
57885;BME280;43703;51.060;-0.086;2022-12-29T05:06:08;98251.58;;;4.80;86.66
57885;BME280;43703;51.060;-0.086;2022-12-29T05:08:34;98247.11;;;4.81;87.05
57885;BME280;43703;51.060;-0.086;2022-12-29T05:10:59;98257.75;;;4.56;88.71
57885;BME280;43703;51.060;-0.086;2022-12-29T05:13:24;98261.99;;;4.93;87.10
57885;BME280;43703;51.060;-0.086;2022-12-29T05:15:51;98248.17;;;4.96;86.90
57885;BME280;43703;51.060;-0.086;2022-12-29T05:18:15;98256.86;;;4.72;86.98
57885;BME280;43703;51.060;-0.086;2022-12-29T05:20:41;98271.09;;;4.94;89.16
57885;BME280;43703;51.060;-0.086;2022-12-29T05:23:06;98278.84;;;4.86;89.85
57885;BME280;43703;51.060;-0.086;2022-12-29T05:25:32;98278.11;;;4.84;89.47
57885;BME280;43703;51.060;-0.086;2022-12-29T05:27:57;98286.93;;;4.38;90.91
57885;BME280;43703;51.060;-0.086;2022-12-29T05:30:22;98292.41;;;4.89;88.31
57885;BME280;43703;51.060;-0.086;2022-12-29T05:32:47;98295.16;;;5.25;86.52
57885;BME280;43703;51.060;-0.086;2022-12-29T05:35:13;98301.80;;;5.72;84.42
57885;BME280;43703;51.060;-0.086;2022-12-29T05:37:37;98311.39;;;5.62;83.20
57885;BME280;43703;51.060;-0.086;2022-12-29T05:40:05;98321.64;;;4.85;86.83
57885;BME280;43703;51.060;-0.086;2022-12-29T05:42:29;98330.13;;;4.83;86.28
57885;BME280;43703;51.060;-0.086;2022-12-29T05:44:54;98329.77;;;5.64;82.53
57885;BME280;43703;51.060;-0.086;2022-12-29T05:47:19;98338.01;;;5.73;82.31
57885;BME280;43703;51.060;-0.086;2022-12-29T05:49:45;98353.89;;;5.40;83.90
57885;BME280;43703;51.060;-0.086;2022-12-29T05:52:10;98363.98;;;5.34;85.28
57885;BME280;43703;51.060;-0.086;2022-12-29T05:54:35;98374.47;;;4.91;87.30
57885;BME280;43703;51.060;-0.086;2022-12-29T05:57:01;98377.90;;;4.84;86.37
57885;BME280;43703;51.060;-0.086;2022-12-29T05:59:26;98395.98;;;5.26;85.84
57885;BME280;43703;51.060;-0.086;2022-12-29T06:01:51;98405.77;;;4.89;85.93
57885;BME280;43703;51.060;-0.086;2022-12-29T06:04:17;98407.84;;;5.25;84.24
57885;BME280;43703;51.060;-0.086;2022-12-29T06:06:43;98420.23;;;4.77;84.36
57885;BME280;43703;51.060;-0.086;2022-12-29T06:09:09;98430.95;;;4.41;85.26
57885;BME280;43703;51.060;-0.086;2022-12-29T06:11:33;98434.44;;;5.42;82.09
57885;BME280;43703;51.060;-0.086;2022-12-29T06:13:59;98436.76;;;5.37;79.86
57885;BME280;43703;51.060;-0.086;2022-12-29T06:16:24;98447.50;;;5.12;81.38
57885;BME280;43703;51.060;-0.086;2022-12-29T06:18:49;98451.76;;;5.57;79.28
57885;BME280;43703;51.060;-0.086;2022-12-29T06:21:14;98463.99;;;5.74;78.44
57885;BME280;43703;51.060;-0.086;2022-12-29T06:23:40;98466.26;;;5.70;76.92
57885;BME280;43703;51.060;-0.086;2022-12-29T06:26:06;98475.17;;;5.24;78.90
57885;BME280;43703;51.060;-0.086;2022-12-29T06:28:31;98488.72;;;5.32;79.86
57885;BME280;43703;51.060;-0.086;2022-12-29T06:30:56;98485.53;;;5.11;79.36
57885;BME280;43703;51.060;-0.086;2022-12-29T06:33:21;98498.52;;;5.42;77.57
57885;BME280;43703;51.060;-0.086;2022-12-29T06:35:46;98499.51;;;5.12;77.99
57885;BME280;43703;51.060;-0.086;2022-12-29T06:38:11;98508.42;;;5.81;77.32
57885;BME280;43703;51.060;-0.086;2022-12-29T06:40:37;98511.69;;;5.69;77.94
57885;BME280;43703;51.060;-0.086;2022-12-29T06:43:02;98512.26;;;5.51;77.22
57885;BME280;43703;51.060;-0.086;2022-12-29T06:45:27;98517.64;;;5.33;78.10
57885;BME280;43703;51.060;-0.086;2022-12-29T06:47:53;98527.20;;;5.05;78.83
57885;BME280;43703;51.060;-0.086;2022-12-29T06:50:19;98526.43;;;5.14;77.92
57885;BME280;43703;51.060;-0.086;2022-12-29T06:52:44;98529.87;;;5.29;78.12
57885;BME280;43703;51.060;-0.086;2022-12-29T06:55:09;98537.00;;;5.69;76.06
57885;BME280;43703;51.060;-0.086;2022-12-29T06:57:35;98535.11;;;5.55;76.49
57885;BME280;43703;51.060;-0.086;2022-12-29T07:00:00;98546.34;;;5.77;75.86
57885;BME280;43703;51.060;-0.086;2022-12-29T07:02:25;98546.78;;;4.46;78.07
57885;BME280;43703;51.060;-0.086;2022-12-29T07:04:50;98554.75;;;5.11;76.52
57885;BME280;43703;51.060;-0.086;2022-12-29T07:07:15;98559.34;;;5.52;74.98
57885;BME280;43703;51.060;-0.086;2022-12-29T07:09:40;98563.67;;;5.19;74.50
57885;BME280;43703;51.060;-0.086;2022-12-29T07:12:05;98569.81;;;4.83;74.85
57885;BME280;43703;51.060;-0.086;2022-12-29T07:14:30;98572.84;;;4.80;75.80
57885;BME280;43703;51.060;-0.086;2022-12-29T07:16:55;98576.58;;;4.48;76.60
57885;BME280;43703;51.060;-0.086;2022-12-29T07:19:20;98581.32;;;4.75;75.60
57885;BME280;43703;51.060;-0.086;2022-12-29T07:21:45;98588.32;;;3.85;79.78
57885;BME280;43703;51.060;-0.086;2022-12-29T07:24:10;98595.03;;;3.73;80.21
57885;BME280;43703;51.060;-0.086;2022-12-29T07:26:35;98598.17;;;4.34;77.18
57885;BME280;43703;51.060;-0.086;2022-12-29T07:29:01;98590.56;;;4.63;75.75
57885;BME280;43703;51.060;-0.086;2022-12-29T07:31:25;98590.30;;;3.86;78.47
57885;BME280;43703;51.060;-0.086;2022-12-29T07:33:51;98594.49;;;4.31;76.11
57885;BME280;43703;51.060;-0.086;2022-12-29T07:36:17;98596.01;;;4.43;75.88
57885;BME280;43703;51.060;-0.086;2022-12-29T07:38:41;98604.91;;;3.87;76.68
57885;BME280;43703;51.060;-0.086;2022-12-29T07:41:06;98612.03;;;4.85;75.43
57885;BME280;43703;51.060;-0.086;2022-12-29T07:43:31;98619.64;;;5.05;74.28
57885;BME280;43703;51.060;-0.086;2022-12-29T07:45:56;98627.76;;;4.73;73.18
57885;BME280;43703;51.060;-0.086;2022-12-29T07:48:22;98633.71;;;4.14;78.03
57885;BME280;43703;51.060;-0.086;2022-12-29T07:50:47;98632.89;;;3.60;79.31
57885;BME280;43703;51.060;-0.086;2022-12-29T07:53:12;98637.62;;;4.18;77.78
57885;BME280;43703;51.060;-0.086;2022-12-29T07:55:37;98632.63;;;4.12;77.07
57885;BME280;43703;51.060;-0.086;2022-12-29T07:58:02;98632.06;;;4.88;76.09
57885;BME280;43703;51.060;-0.086;2022-12-29T08:00:27;98631.66;;;3.95;79.61
57885;BME280;43703;51.060;-0.086;2022-12-29T08:02:52;98639.67;;;4.56;77.40
57885;BME280;43703;51.060;-0.086;2022-12-29T08:05:17;98640.64;;;4.26;77.18
57885;BME280;43703;51.060;-0.086;2022-12-29T08:07:42;98639.21;;;4.90;76.29
57885;BME280;43703;51.060;-0.086;2022-12-29T08:10:07;98631.65;;;3.41;79.52
57885;BME280;43703;51.060;-0.086;2022-12-29T08:12:32;98637.81;;;3.69;79.23
57885;BME280;43703;51.060;-0.086;2022-12-29T08:14:57;98647.21;;;3.88;81.03
57885;BME280;43703;51.060;-0.086;2022-12-29T08:17:22;98656.42;;;3.67;82.51
57885;BME280;43703;51.060;-0.086;2022-12-29T08:19:47;98654.83;;;3.87;81.80
57885;BME280;43703;51.060;-0.086;2022-12-29T08:22:13;98658.25;;;4.33;79.14
57885;BME280;43703;51.060;-0.086;2022-12-29T08:24:37;98664.06;;;3.99;80.81
57885;BME280;43703;51.060;-0.086;2022-12-29T08:27:02;98669.12;;;4.12;79.67
57885;BME280;43703;51.060;-0.086;2022-12-29T08:29:27;98674.22;;;4.37;78.38
57885;BME280;43703;51.060;-0.086;2022-12-29T08:31:52;98684.64;;;3.52;80.20
57885;BME280;43703;51.060;-0.086;2022-12-29T08:34:17;98683.41;;;4.37;76.94
57885;BME280;43703;51.060;-0.086;2022-12-29T08:36:43;98689.66;;;4.29;77.33
57885;BME280;43703;51.060;-0.086;2022-12-29T08:39:09;98697.53;;;4.07;80.00
57885;BME280;43703;51.060;-0.086;2022-12-29T08:41:33;98702.93;;;4.10;79.22
57885;BME280;43703;51.060;-0.086;2022-12-29T08:43:58;98702.34;;;3.69;79.83
57885;BME280;43703;51.060;-0.086;2022-12-29T08:46:23;98706.22;;;3.36;81.48
57885;BME280;43703;51.060;-0.086;2022-12-29T08:48:48;98706.54;;;4.21;79.26
57885;BME280;43703;51.060;-0.086;2022-12-29T08:51:14;98711.54;;;3.98;80.09
57885;BME280;43703;51.060;-0.086;2022-12-29T08:53:39;98710.87;;;4.09;79.32
57885;BME280;43703;51.060;-0.086;2022-12-29T08:56:05;98717.27;;;4.10;78.47
57885;BME280;43703;51.060;-0.086;2022-12-29T08:58:29;98718.62;;;3.85;79.46
57885;BME280;43703;51.060;-0.086;2022-12-29T09:00:55;98715.71;;;4.15;79.33
57885;BME280;43703;51.060;-0.086;2022-12-29T09:03:20;98714.05;;;4.54;79.55
57885;BME280;43703;51.060;-0.086;2022-12-29T09:05:48;98713.03;;;4.76;77.77
57885;BME280;43703;51.060;-0.086;2022-12-29T09:08:09;98721.28;;;4.01;79.57
57885;BME280;43703;51.060;-0.086;2022-12-29T09:10:34;98717.29;;;4.51;78.19
57885;BME280;43703;51.060;-0.086;2022-12-29T09:12:59;98723.71;;;4.80;79.17
57885;BME280;43703;51.060;-0.086;2022-12-29T09:15:25;98725.30;;;5.65;76.09
57885;BME280;43703;51.060;-0.086;2022-12-29T09:17:50;98724.21;;;5.51;76.62
57885;BME280;43703;51.060;-0.086;2022-12-29T09:20:16;98728.82;;;5.15;77.49
57885;BME280;43703;51.060;-0.086;2022-12-29T09:22:40;98732.12;;;5.32;77.10
57885;BME280;43703;51.060;-0.086;2022-12-29T09:25:06;98732.15;;;4.73;78.32
57885;BME280;43703;51.060;-0.086;2022-12-29T09:27:30;98732.65;;;5.45;75.85
57885;BME280;43703;51.060;-0.086;2022-12-29T09:29:56;98735.42;;;4.92;77.34
57885;BME280;43703;51.060;-0.086;2022-12-29T09:32:21;98743.96;;;5.53;77.92
57885;BME280;43703;51.060;-0.086;2022-12-29T09:34:47;98747.31;;;5.54;75.90
57885;BME280;43703;51.060;-0.086;2022-12-29T09:37:12;98752.78;;;5.50;77.03
57885;BME280;43703;51.060;-0.086;2022-12-29T09:39:37;98750.82;;;5.30;75.46
57885;BME280;43703;51.060;-0.086;2022-12-29T09:42:08;98755.74;;;5.62;75.15
57885;BME280;43703;51.060;-0.086;2022-12-29T09:44:37;98758.78;;;5.25;76.52
57885;BME280;43703;51.060;-0.086;2022-12-29T09:46:55;98765.44;;;6.05;76.01
57885;BME280;43703;51.060;-0.086;2022-12-29T09:49:25;98767.11;;;5.49;77.17
57885;BME280;43703;51.060;-0.086;2022-12-29T09:51:48;98773.96;;;5.51;78.98
57885;BME280;43703;51.060;-0.086;2022-12-29T09:56:34;98779.74;;;6.80;74.86
57885;BME280;43703;51.060;-0.086;2022-12-29T09:59:04;98779.46;;;6.27;73.31
57885;BME280;43703;51.060;-0.086;2022-12-29T10:01:30;98789.73;;;6.92;74.01
57885;BME280;43703;51.060;-0.086;2022-12-29T10:03:51;98793.43;;;7.81;68.97
57885;BME280;43703;51.060;-0.086;2022-12-29T10:06:19;98805.90;;;7.20;68.30
57885;BME280;43703;51.060;-0.086;2022-12-29T10:08:45;98797.93;;;5.51;74.86
57885;BME280;43703;51.060;-0.086;2022-12-29T10:11:16;98807.34;;;6.17;73.86
57885;BME280;43703;51.060;-0.086;2022-12-29T10:13:41;98808.22;;;5.94;73.61
57885;BME280;43703;51.060;-0.086;2022-12-29T10:16:04;98813.74;;;6.45;72.28
57885;BME280;43703;51.060;-0.086;2022-12-29T10:18:37;98820.63;;;6.26;71.86
57885;BME280;43703;51.060;-0.086;2022-12-29T10:20:55;98828.16;;;6.20;73.24
57885;BME280;43703;51.060;-0.086;2022-12-29T10:23:25;98830.70;;;5.95;73.27
57885;BME280;43703;51.060;-0.086;2022-12-29T10:25:43;98834.32;;;6.63;71.52
57885;BME280;43703;51.060;-0.086;2022-12-29T10:28:17;98838.93;;;6.15;71.39
57885;BME280;43703;51.060;-0.086;2022-12-29T10:30:34;98845.88;;;5.78;73.30
57885;BME280;43703;51.060;-0.086;2022-12-29T10:33:04;98842.38;;;6.08;71.94
57885;BME280;43703;51.060;-0.086;2022-12-29T10:35:26;98846.48;;;5.43;73.70
57885;BME280;43703;51.060;-0.086;2022-12-29T10:37:56;98846.94;;;5.50;73.79
57885;BME280;43703;51.060;-0.086;2022-12-29T10:40:22;98848.63;;;5.81;71.99
57885;BME280;43703;51.060;-0.086;2022-12-29T10:42:45;98849.96;;;5.27;73.25
57885;BME280;43703;51.060;-0.086;2022-12-29T10:45:12;98847.21;;;5.92;70.76
57885;BME280;43703;51.060;-0.086;2022-12-29T10:47:37;98857.57;;;6.22;69.50
57885;BME280;43703;51.060;-0.086;2022-12-29T10:49:58;98860.31;;;6.14;70.67
57885;BME280;43703;51.060;-0.086;2022-12-29T10:52:23;98861.31;;;6.70;67.65
57885;BME280;43703;51.060;-0.086;2022-12-29T10:54:51;98872.13;;;6.51;68.44
57885;BME280;43703;51.060;-0.086;2022-12-29T10:57:22;98864.05;;;5.91;67.84
57885;BME280;43703;51.060;-0.086;2022-12-29T10:59:39;98872.59;;;5.14;68.65
57885;BME280;43703;51.060;-0.086;2022-12-29T11:02:16;98880.36;;;5.60;68.72
57885;BME280;43703;51.060;-0.086;2022-12-29T11:04:39;98872.80;;;5.56;67.87
57885;BME280;43703;51.060;-0.086;2022-12-29T11:06:54;98873.42;;;5.73;67.66
57885;BME280;43703;51.060;-0.086;2022-12-29T11:09:25;98871.09;;;5.39;66.14
57885;BME280;43703;51.060;-0.086;2022-12-29T11:11:45;98870.38;;;5.72;65.67
57885;BME280;43703;51.060;-0.086;2022-12-29T11:14:14;98872.17;;;5.57;67.19
57885;BME280;43703;51.060;-0.086;2022-12-29T11:16:37;98886.51;;;5.31;68.38
57885;BME280;43703;51.060;-0.086;2022-12-29T11:19:03;98891.70;;;5.14;69.45
57885;BME280;43703;51.060;-0.086;2022-12-29T11:21:32;98886.93;;;5.40;67.63
57885;BME280;43703;51.060;-0.086;2022-12-29T11:23:56;98895.68;;;5.67;65.81
57885;BME280;43703;51.060;-0.086;2022-12-29T11:26:21;98903.00;;;5.98;65.57
57885;BME280;43703;51.060;-0.086;2022-12-29T11:28:45;98904.62;;;5.93;65.95
57885;BME280;43703;51.060;-0.086;2022-12-29T11:31:10;98911.14;;;7.16;63.16
57885;BME280;43703;51.060;-0.086;2022-12-29T11:33:35;98911.45;;;5.39;66.34
57885;BME280;43703;51.060;-0.086;2022-12-29T11:36:02;98914.89;;;6.01;68.21
57885;BME280;43703;51.060;-0.086;2022-12-29T11:38:29;98916.83;;;4.86;69.93
57885;BME280;43703;51.060;-0.086;2022-12-29T11:40:51;98916.93;;;5.92;66.49
57885;BME280;43703;51.060;-0.086;2022-12-29T11:43:21;98924.24;;;5.11;69.17
57885;BME280;43703;51.060;-0.086;2022-12-29T11:45:45;98925.60;;;5.79;69.25
57885;BME280;43703;51.060;-0.086;2022-12-29T11:48:08;98922.42;;;5.38;68.07
57885;BME280;43703;51.060;-0.086;2022-12-29T11:50:33;98924.47;;;5.77;66.94
57885;BME280;43703;51.060;-0.086;2022-12-29T11:52:59;98928.26;;;5.45;67.97
57885;BME280;43703;51.060;-0.086;2022-12-29T11:55:25;98930.01;;;5.39;69.22
57885;BME280;43703;51.060;-0.086;2022-12-29T11:57:49;98930.81;;;5.43;69.30
57885;BME280;43703;51.060;-0.086;2022-12-29T12:00:18;98931.76;;;5.32;68.53
57885;BME280;43703;51.060;-0.086;2022-12-29T12:02:44;98933.79;;;5.24;68.74
57885;BME280;43703;51.060;-0.086;2022-12-29T12:05:10;98936.34;;;5.31;69.18
57885;BME280;43703;51.060;-0.086;2022-12-29T12:07:37;98927.71;;;5.34;68.27
57885;BME280;43703;51.060;-0.086;2022-12-29T12:09:58;98941.21;;;5.47;68.53
57885;BME280;43703;51.060;-0.086;2022-12-29T12:12:26;98936.06;;;5.55;67.42
57885;BME280;43703;51.060;-0.086;2022-12-29T12:14:51;98937.06;;;6.02;65.38
57885;BME280;43703;51.060;-0.086;2022-12-29T12:17:14;98939.62;;;6.05;66.43
57885;BME280;43703;51.060;-0.086;2022-12-29T12:19:40;98942.29;;;5.68;67.59
57885;BME280;43703;51.060;-0.086;2022-12-29T12:22:12;98947.32;;;5.40;67.05
57885;BME280;43703;51.060;-0.086;2022-12-29T12:24:37;98941.04;;;5.62;66.85
57885;BME280;43703;51.060;-0.086;2022-12-29T12:26:58;98940.83;;;6.05;66.04
57885;BME280;43703;51.060;-0.086;2022-12-29T12:29:22;98940.18;;;6.27;65.95
57885;BME280;43703;51.060;-0.086;2022-12-29T12:31:46;98938.46;;;6.00;64.95
57885;BME280;43703;51.060;-0.086;2022-12-29T12:34:13;98942.82;;;5.40;67.11
57885;BME280;43703;51.060;-0.086;2022-12-29T12:39:02;98943.02;;;5.47;67.19
57885;BME280;43703;51.060;-0.086;2022-12-29T12:41:32;98942.89;;;6.39;64.45
57885;BME280;43703;51.060;-0.086;2022-12-29T12:43:52;98944.68;;;6.18;65.71
57885;BME280;43703;51.060;-0.086;2022-12-29T12:46:24;98940.16;;;5.32;66.74
57885;BME280;43703;51.060;-0.086;2022-12-29T12:48:52;98940.82;;;5.15;67.83
57885;BME280;43703;51.060;-0.086;2022-12-29T12:51:11;98939.30;;;5.63;66.70
57885;BME280;43703;51.060;-0.086;2022-12-29T12:53:42;98931.46;;;5.42;66.13
57885;BME280;43703;51.060;-0.086;2022-12-29T12:56:06;98936.40;;;5.71;66.67
57885;BME280;43703;51.060;-0.086;2022-12-29T12:58:27;98951.37;;;5.44;68.23
57885;BME280;43703;51.060;-0.086;2022-12-29T13:00:53;98943.53;;;5.43;67.11